• Join FlightAware (Why Join?)
  • Login
  • US Flag 
04:44PM EDT


 

Airport Tracker/Info


-or-


 

Live Flight TrackerFlight Track Log ✈ KAP46 ✈ 22-Jun-2013 ✈ KALB - KMSS

Flight Track Log - Related Links

Times and Time Zones

All times are in EDT time to prevent confusion due to time zone crossing. See the KAP46 flight status page for this flight to view local times or setup timezone preferences in your user account.

Time Position Orientation Groundspeed Altitude Reporting Facility
EDT Latitude Longitude Course Direction KTS MPH feet Rate Location/Type
02:40PM 42.8952 -73.8692 341° North  Level Estimated
02:41PM 42.9196 -73.8804 341° North  Level Estimated
02:42PM 42.9439 -73.8917 341° North  Level Estimated
02:42PM 43.0369 -73.7439 341° North 140 161 6,200  Level Boston Center
02:43PM 42.9683 -73.9029 341° North  Level Estimated
02:43PM 43.0700 -73.7589 342° North 140 161 6,700  Level Boston Center
02:44PM 42.9926 -73.9142 341° North  Level Estimated
02:44PM 43.1117 -73.7656 353° North 158 182 7,000  Level Boston Center
02:45PM 43.0170 -73.9255 341° North  Level Estimated
02:45PM 43.1511 -73.7806 344° North 167 192 7,100  Level Boston Center
02:46PM 43.0413 -73.9367 341° North  Level Estimated
02:46PM 43.1989 -73.8014 342° North 164 189 7,000  Level Boston Center
02:47PM 43.0657 -73.9480 341° North  Level Estimated
02:47PM 43.2403 -73.8253 337° Northwest 170 196 7,000  Level Boston Center
02:48PM 43.2753 -73.8461 337° Northwest 165 190 6,900  Descending Boston Center
02:49PM 43.3189 -73.8728 336° Northwest 159 183 7,000  Climbing Boston Center
02:50PM 43.3603 -73.8936 340° North 151 174 7,000 -60 Level Boston Center
02:51PM 43.3953 -73.9172 334° Northwest 157 181 6,900 -60 Descending Boston Center
02:52PM 43.4328 -73.9325 344° North 157 181 6,900  Level Boston Center
02:53PM 43.4719 -73.9592 334° Northwest 157 181 6,900  Level Boston Center
02:54PM 43.5133 -73.9831 337° Northwest 157 181 6,900  Level Boston Center
02:55PM 43.5525 -74.0072 336° Northwest 157 181 6,900  Level Boston Center
02:56PM 43.5939 -74.0311 337° Northwest 157 181 7,000  Climbing Boston Center
02:57PM 43.6331 -74.0550 336° Northwest 157 181 6,900  Descending Boston Center
02:58PM 43.6806 -74.0850 335° Northwest 157 181 7,000  Climbing Boston Center
02:59PM 43.7283 -74.1122 338° Northwest 157 181 7,000 -60 Level Boston Center
03:00PM 43.7675 -74.1364 336° Northwest 157 181 6,900 -60 Descending Boston Center
03:01PM 43.8089 -74.1606 337° Northwest 157 181 6,900  Level Boston Center
03:02PM 43.8500 -74.1847 337° Northwest 157 181 6,900  Level Boston Center
03:03PM 43.8831 -74.2058 335° Northwest 157 181 6,900  Level Boston Center
03:04PM 43.9328 -74.2333 338° Northwest 157 181 6,900  Level Boston Center
03:05PM 43.9761 -74.2606 336° Northwest 157 181 6,900  Level Boston Center
03:06PM 44.0172 -74.2819 339° North 157 181 6,900  Level Boston Center
03:07PM 44.0586 -74.3092 335° Northwest 157 181 7,000  Climbing Boston Center
03:08PM 44.0978 -74.3336 336° Northwest 157 181 7,000  Level Boston Center
03:09PM 44.1392 -74.3581 337° Northwest 157 181 7,000  Level Boston Center
03:10PM 44.1825 -74.3797 340° North 157 181 7,000  Level Boston Center
03:11PM 44.2278 -74.4072 336° Northwest 163 188 7,000  Level Boston Center
03:12PM 44.2711 -74.4347 336° Northwest 163 188 7,000  Level Boston Center
03:14PM 44.3093 -74.4894 314° West  Level FlightAware Approximate
03:14PM 44.3514 -74.4928 314° West 163 188 7,000  Level Boston Center
03:15PM 44.3947 -74.5144 340° North 163 188 6,900 -240 Descending Boston Center
03:16PM 44.4403 -74.5336 343° North 163 188 6,600 -360 Descending Boston Center
03:17PM 44.4856 -74.5642 334° Northwest 171 197 6,200 -480 Descending Boston Center
03:18PM 44.5350 -74.5953 336° Northwest 171 197 5,700 -540 Descending Boston Center
03:19PM 44.5822 -74.6231 337° Northwest 176 203 5,200 -420 Descending Boston Center
03:20PM 44.6297 -74.6542 335° Northwest 176 203 4,900 -180 Descending Boston Center
03:21PM 44.6708 -74.6819 334° Northwest 171 197 4,900  Level Boston Center